createdAt,value
2019-05-26T00:01:19.428Z,96.81
2019-05-26T00:03:52.014Z,96.78
2019-05-26T00:06:24.692Z,96.71
2019-05-26T00:08:57.258Z,96.60
2019-05-26T00:11:29.903Z,96.51
2019-05-26T00:14:03.699Z,96.39
2019-05-26T00:16:36.319Z,96.31
2019-05-26T00:19:08.893Z,95.89
2019-05-26T00:21:41.584Z,95.57
2019-05-26T00:24:14.255Z,95.33
2019-05-26T00:26:47.557Z,95.03
2019-05-26T00:29:20.127Z,94.83
2019-05-26T00:31:52.833Z,94.69
2019-05-26T00:34:25.495Z,94.61
2019-05-26T00:36:57.778Z,94.50
2019-05-26T00:39:30.437Z,94.40
2019-05-26T00:42:03.146Z,94.21
2019-05-26T00:44:35.897Z,94.16
2019-05-26T00:47:08.579Z,93.94
2019-05-26T00:49:41.259Z,93.92
2019-05-26T00:52:13.933Z,93.56
2019-05-26T00:54:46.609Z,93.41
2019-05-26T00:57:19.291Z,93.10
2019-05-26T00:59:51.877Z,92.98
2019-05-26T01:02:24.555Z,92.89
2019-05-26T01:04:57.226Z,92.58
2019-05-26T01:07:29.910Z,92.47
2019-05-26T01:10:02.796Z,92.36
2019-05-26T01:12:36.498Z,92.20
2019-05-26T01:15:11.763Z,92.27
2019-05-26T01:17:44.415Z,91.82
2019-05-26T01:20:19.855Z,91.66
2019-05-26T01:22:53.906Z,91.64
2019-05-26T01:25:27.617Z,91.51
2019-05-26T01:28:00.349Z,91.78
2019-05-26T01:30:39.115Z,91.86
2019-05-26T01:33:11.756Z,92.14
2019-05-26T01:35:44.533Z,92.02
2019-05-26T01:38:23.971Z,92.01
2019-05-26T01:40:52.146Z,92.10
2019-05-26T01:43:24.989Z,91.87
2019-05-26T01:45:57.916Z,91.99
2019-05-26T01:48:30.902Z,92.13
2019-05-26T01:51:03.577Z,92.15
2019-05-26T01:53:36.203Z,92.36
2019-05-26T01:56:09.235Z,92.37
2019-05-26T01:58:41.918Z,92.76
2019-05-26T02:01:14.500Z,92.46
2019-05-26T02:03:47.180Z,92.52
2019-05-26T02:06:19.965Z,92.49
2019-05-26T02:08:52.640Z,92.25
2019-05-26T02:11:25.210Z,92.16
2019-05-26T02:13:57.901Z,91.96
2019-05-26T02:16:30.572Z,92.00
2019-05-26T02:19:04.496Z,92.02
2019-05-26T02:21:37.164Z,92.34
2019-05-26T02:24:09.841Z,92.30
2019-05-26T02:26:42.622Z,92.49
2019-05-26T02:29:15.303Z,92.47
2019-05-26T02:31:47.882Z,92.20
2019-05-26T02:34:20.659Z,92.14
2019-05-26T02:36:53.340Z,92.08
2019-05-26T02:39:25.857Z,91.99
2019-05-26T02:41:58.487Z,92.06
2019-05-26T02:44:31.680Z,91.77
2019-05-26T02:47:04.269Z,92.02
2019-05-26T02:49:36.931Z,91.80
2019-05-26T02:52:09.610Z,91.79
2019-05-26T02:54:42.297Z,91.68
2019-05-26T02:57:14.974Z,91.66
2019-05-26T02:59:47.651Z,91.30
2019-05-26T03:02:20.433Z,91.18
2019-05-26T03:04:53.119Z,91.18
2019-05-26T03:07:27.837Z,91.11
2019-05-26T03:10:02.379Z,90.83
2019-05-26T03:12:39.551Z,90.86
2019-05-26T03:15:14.339Z,90.47
2019-05-26T03:17:49.340Z,90.40
2019-05-26T03:20:21.808Z,90.49
2019-05-26T03:22:57.025Z,90.27
2019-05-26T03:25:31.460Z,90.38
2019-05-26T03:28:05.249Z,90.45
2019-05-26T03:30:39.381Z,90.41
2019-05-26T03:33:12.066Z,89.99
2019-05-26T03:35:44.717Z,90.03
2019-05-26T03:38:17.163Z,89.97
2019-05-26T03:40:49.874Z,89.70
2019-05-26T03:43:22.554Z,89.58
2019-05-26T03:46:11.620Z,89.42
2019-05-26T03:48:44.186Z,89.03
2019-05-26T03:51:17.393Z,88.85
2019-05-26T03:53:50.223Z,88.88
2019-05-26T03:56:22.970Z,88.51
2019-05-26T03:58:55.524Z,88.73
2019-05-26T04:01:29.439Z,88.41
2019-05-26T04:04:02.111Z,88.93
2019-05-26T04:06:34.781Z,88.53
2019-05-26T04:09:09.875Z,88.58
2019-05-26T04:11:42.605Z,88.81
2019-05-26T04:14:15.290Z,88.22
2019-05-26T04:16:47.962Z,88.27
2019-05-26T04:19:20.642Z,88.48
2019-05-26T04:21:53.836Z,88.31
2019-05-26T04:24:26.065Z,87.67
2019-05-26T04:26:58.778Z,87.35
2019-05-26T04:29:31.347Z,87.75
2019-05-26T04:32:04.156Z,87.68
2019-05-26T04:34:36.810Z,87.38
2019-05-26T04:37:09.493Z,87.24
2019-05-26T04:39:42.177Z,87.23
2019-05-26T04:42:14.909Z,86.63
2019-05-26T04:44:47.538Z,86.76
2019-05-26T04:47:20.516Z,86.78
2019-05-26T04:49:54.091Z,86.38
2019-05-26T04:52:27.408Z,86.42
2019-05-26T04:54:59.982Z,85.78
2019-05-26T04:57:32.774Z,85.49
2019-05-26T05:00:08.209Z,85.23
2019-05-26T05:02:41.512Z,85.16
2019-05-26T05:05:14.202Z,85.32
2019-05-26T05:07:46.866Z,85.16
2019-05-26T05:10:20.776Z,84.66
2019-05-26T05:12:53.459Z,84.91
2019-05-26T05:15:26.190Z,84.22
2019-05-26T05:18:00.453Z,84.36
2019-05-26T05:20:33.327Z,83.60
2019-05-26T05:23:06.112Z,83.69
2019-05-26T05:25:40.228Z,83.68
2019-05-26T05:28:12.863Z,83.31
2019-05-26T05:30:45.485Z,83.33
2019-05-26T05:33:18.165Z,82.37
2019-05-26T05:35:50.835Z,82.28
2019-05-26T05:38:23.537Z,81.91
2019-05-26T05:40:59.896Z,81.47
2019-05-26T05:43:30.407Z,80.82
2019-05-26T05:46:04.326Z,80.93
2019-05-26T05:48:37.496Z,79.66
2019-05-26T05:51:11.322Z,79.96
2019-05-26T05:53:43.993Z,78.96
2019-05-26T05:56:16.571Z,78.02
2019-05-26T05:58:49.254Z,78.55
2019-05-26T06:01:21.830Z,78.26
2019-05-26T06:03:54.150Z,77.11
2019-05-26T06:06:26.782Z,76.08
2019-05-26T06:08:59.466Z,76.68
2019-05-26T06:11:33.142Z,76.20
2019-05-26T06:14:06.246Z,76.16
2019-05-26T06:16:38.922Z,75.60
2019-05-26T06:19:11.616Z,75.32
2019-05-26T06:21:44.290Z,74.14
2019-05-26T06:24:16.960Z,74.17
2019-05-26T06:26:49.537Z,73.38
2019-05-26T06:29:22.222Z,74.06
2019-05-26T06:31:55.359Z,73.08
2019-05-26T06:34:28.907Z,73.31
2019-05-26T06:37:01.598Z,73.43
2019-05-26T06:39:34.271Z,72.34
2019-05-26T06:42:06.951Z,73.97
2019-05-26T06:44:52.590Z,74.21
2019-05-26T06:47:13.948Z,72.40
2019-05-26T06:49:46.236Z,71.86
2019-05-26T06:52:18.900Z,70.55
2019-05-26T06:54:51.623Z,70.34
2019-05-26T06:57:24.263Z,69.96
2019-05-26T06:59:56.926Z,68.59
2019-05-26T07:02:30.744Z,65.57
2019-05-26T07:05:03.419Z,65.93
2019-05-26T07:07:36.299Z,66.74
2019-05-26T07:10:09.090Z,64.07
2019-05-26T07:12:41.755Z,62.92
2019-05-26T07:15:14.663Z,63.64
2019-05-26T07:17:47.315Z,63.11
2019-05-26T07:20:20.813Z,62.83
2019-05-26T07:22:54.115Z,60.04
2019-05-26T07:25:26.792Z,60.52
2019-05-26T07:27:59.575Z,61.39
2019-05-26T07:30:32.356Z,61.46
2019-05-26T07:33:05.342Z,59.29
2019-05-26T07:35:38.019Z,60.19
2019-05-26T07:38:10.598Z,59.38
2019-05-26T07:40:43.269Z,57.15
2019-05-26T07:43:15.960Z,57.82
2019-05-26T07:45:48.302Z,57.33
2019-05-26T07:48:21.424Z,58.02
2019-05-26T07:50:54.094Z,58.15
2019-05-26T07:53:26.971Z,56.16
2019-05-26T07:55:59.287Z,56.07
2019-05-26T07:58:31.919Z,56.60
2019-05-26T08:01:04.614Z,55.94
2019-05-26T08:03:37.285Z,54.74
2019-05-26T08:06:09.964Z,55.62
2019-05-26T08:08:42.635Z,54.12
2019-05-26T08:11:15.313Z,53.71
2019-05-26T08:13:48.012Z,53.43
2019-05-26T08:16:20.681Z,53.40
2019-05-26T08:18:53.352Z,52.89
2019-05-26T08:21:26.033Z,51.66
2019-05-26T08:23:59.693Z,53.69
2019-05-26T08:26:32.421Z,53.19
2019-05-26T08:29:05.098Z,51.74
2019-05-26T08:31:37.611Z,52.54
2019-05-26T08:34:10.207Z,53.56
2019-05-26T08:36:44.265Z,53.04
2019-05-26T08:39:16.941Z,51.03
2019-05-26T08:41:49.626Z,49.98
2019-05-26T08:44:22.290Z,51.25
2019-05-26T08:46:54.680Z,51.95
2019-05-26T08:49:27.350Z,52.34
2019-05-26T08:52:00.134Z,51.85
2019-05-26T08:54:32.814Z,51.05
2019-05-26T08:57:05.707Z,52.18
2019-05-26T08:59:38.274Z,50.31
2019-05-26T09:02:10.957Z,49.71
2019-05-26T09:04:43.634Z,49.03
2019-05-26T09:07:16.311Z,50.34
2019-05-26T09:09:49.021Z,50.24
2019-05-26T09:12:22.075Z,49.65
2019-05-26T09:14:54.747Z,50.29
2019-05-26T09:17:27.434Z,49.45
2019-05-26T09:20:00.013Z,49.62
2019-05-26T09:22:32.894Z,50.21
2019-05-26T09:25:07.211Z,48.44
2019-05-26T09:27:39.896Z,46.97
2019-05-26T09:30:12.674Z,47.21
2019-05-26T09:32:45.351Z,47.00
2019-05-26T09:35:18.949Z,47.10
2019-05-26T09:37:51.893Z,47.01
2019-05-26T09:40:24.611Z,49.24
2019-05-26T09:42:57.710Z,48.44
2019-05-26T09:45:30.491Z,47.77
2019-05-26T09:48:03.370Z,47.28
2019-05-26T09:50:36.038Z,48.18
2019-05-26T09:53:08.733Z,46.85
2019-05-26T09:55:40.959Z,47.83
2019-05-26T09:58:13.669Z,48.03
2019-05-26T10:00:47.244Z,47.94
2019-05-26T10:03:20.062Z,46.32
2019-05-26T10:05:52.741Z,49.82
2019-05-26T10:08:25.422Z,47.04
2019-05-26T10:10:59.314Z,47.11
2019-05-26T10:13:32.428Z,45.66
2019-05-26T10:16:04.985Z,44.76
2019-05-26T10:18:37.672Z,43.68
2019-05-26T10:21:10.248Z,45.40
2019-05-26T10:23:42.925Z,43.33
2019-05-26T10:26:15.503Z,44.86
2019-05-26T10:28:48.176Z,43.54
2019-05-26T10:31:20.868Z,43.65
2019-05-26T10:33:53.579Z,43.37
2019-05-26T10:36:26.732Z,44.71
2019-05-26T10:39:00.633Z,44.67
2019-05-26T10:41:33.262Z,44.69
2019-05-26T10:44:06.442Z,42.80
2019-05-26T10:46:39.289Z,42.10
2019-05-26T10:49:11.571Z,43.31
2019-05-26T10:51:45.566Z,43.68
2019-05-26T10:54:18.302Z,43.94
2019-05-26T10:56:50.918Z,43.13
2019-05-26T10:59:23.218Z,40.83
2019-05-26T11:01:55.433Z,40.30
2019-05-26T11:04:28.137Z,41.09
2019-05-26T11:07:00.725Z,41.10
2019-05-26T11:09:33.401Z,39.63
2019-05-26T11:12:05.736Z,39.25
2019-05-26T11:14:38.459Z,39.99
2019-05-26T11:17:10.690Z,40.38
2019-05-26T11:19:43.406Z,38.97
2019-05-26T11:22:16.074Z,38.63
2019-05-26T11:24:48.750Z,40.81
2019-05-26T11:27:21.338Z,39.51
2019-05-26T11:29:54.016Z,38.62
2019-05-26T11:32:26.721Z,39.09
2019-05-26T11:35:01.916Z,38.62
2019-05-26T11:37:35.370Z,39.40
2019-05-26T11:40:10.062Z,39.92
2019-05-26T11:42:45.014Z,38.02
2019-05-26T11:45:18.176Z,37.71
2019-05-26T11:47:50.960Z,37.26
2019-05-26T11:50:24.350Z,37.36
2019-05-26T11:52:56.930Z,36.81
2019-05-26T11:55:29.603Z,36.94
2019-05-26T11:58:02.212Z,36.50
2019-05-26T12:00:36.482Z,35.91
2019-05-26T12:03:09.483Z,36.80
2019-05-26T12:05:42.160Z,36.86
2019-05-26T12:08:14.848Z,37.09
2019-05-26T12:10:48.194Z,37.84
2019-05-26T12:13:20.922Z,36.06
2019-05-26T12:18:25.163Z,35.80
2019-05-26T12:20:57.826Z,35.25
2019-05-26T12:23:30.824Z,34.73
2019-05-26T12:26:03.502Z,35.47
2019-05-26T12:28:35.825Z,36.79
2019-05-26T12:31:08.850Z,36.56
2019-05-26T12:33:43.066Z,37.83
2019-05-26T12:36:15.355Z,35.44
2019-05-26T12:38:54.166Z,36.22
2019-05-26T12:41:26.941Z,35.19
2019-05-26T12:43:59.524Z,35.98
2019-05-26T12:46:32.204Z,35.24
2019-05-26T12:49:05.718Z,33.70
2019-05-26T12:51:38.372Z,34.88
2019-05-26T12:54:12.390Z,34.86
2019-05-26T12:56:44.668Z,34.29
2019-05-26T12:59:17.340Z,35.22
2019-05-26T13:01:50.632Z,34.45
2019-05-26T13:04:23.198Z,32.28
2019-05-26T13:06:55.939Z,32.89
2019-05-26T13:09:28.567Z,32.64
2019-05-26T13:12:01.429Z,35.08
2019-05-26T13:14:34.129Z,35.51
2019-05-26T13:17:06.803Z,34.58
2019-05-26T13:19:39.437Z,34.76
2019-05-26T13:22:12.149Z,35.32
2019-05-26T13:24:44.847Z,35.06
2019-05-26T13:27:17.888Z,35.21
2019-05-26T13:29:50.668Z,33.15
2019-05-26T13:32:23.354Z,33.28
2019-05-26T13:34:56.029Z,34.47
2019-05-26T13:37:28.707Z,34.94
2019-05-26T13:40:01.290Z,34.40
2019-05-26T13:42:34.162Z,32.26
2019-05-26T13:45:21.800Z,32.32
2019-05-26T13:47:44.953Z,31.47
2019-05-26T13:50:18.673Z,31.25
2019-05-26T13:52:51.335Z,31.38
2019-05-26T13:55:24.122Z,31.92
2019-05-26T13:57:56.996Z,30.88
2019-05-26T14:00:29.675Z,30.41
2019-05-26T14:03:02.287Z,31.15
2019-05-26T14:05:34.936Z,32.35
2019-05-26T14:08:07.620Z,30.75
2019-05-26T14:10:40.609Z,30.56
2019-05-26T14:13:13.378Z,31.57
2019-05-26T14:15:46.468Z,32.77
2019-05-26T14:18:20.884Z,33.45
2019-05-26T14:20:53.105Z,32.60
2019-05-26T14:23:25.741Z,31.56
2019-05-26T14:25:58.421Z,31.14
2019-05-26T14:28:31.095Z,31.19
2019-05-26T14:31:03.665Z,30.75
2019-05-26T14:33:36.356Z,30.35
2019-05-26T14:36:08.924Z,30.81
2019-05-26T14:38:43.517Z,29.88
2019-05-26T14:41:15.380Z,29.88
2019-05-26T14:43:48.193Z,29.90
2019-05-26T14:46:20.873Z,29.38
2019-05-26T14:48:53.544Z,30.13
2019-05-26T14:51:26.127Z,29.65
2019-05-26T14:53:58.908Z,31.18
2019-05-26T14:56:31.144Z,31.76
2019-05-26T14:59:03.880Z,31.56
2019-05-26T15:01:36.542Z,30.77
2019-05-26T15:04:09.521Z,30.76
2019-05-26T15:06:41.955Z,29.71
2019-05-26T15:09:24.723Z,29.31
2019-05-26T15:11:50.218Z,28.01
2019-05-26T15:14:23.107Z,28.99
2019-05-26T15:16:55.660Z,29.79
2019-05-26T15:19:28.359Z,29.99
2019-05-26T15:22:00.937Z,30.78
2019-05-26T15:24:33.575Z,30.22
2019-05-26T15:27:06.196Z,30.58
2019-05-26T15:29:39.059Z,31.62
2019-05-26T15:32:11.962Z,30.66
2019-05-26T15:34:44.948Z,29.73
2019-05-26T15:37:18.035Z,29.03
2019-05-26T15:39:50.718Z,26.46
2019-05-26T15:42:23.293Z,27.00
2019-05-26T15:44:57.405Z,25.63
2019-05-26T15:47:30.184Z,27.66
2019-05-26T15:50:02.865Z,27.66
2019-05-26T15:52:35.654Z,29.65
2019-05-26T15:55:09.352Z,31.45
2019-05-26T15:57:42.030Z,32.31
2019-05-26T16:00:15.945Z,33.46
2019-05-26T16:02:48.530Z,34.49
2019-05-26T16:05:21.201Z,34.29
2019-05-26T16:07:53.426Z,34.88
2019-05-26T16:10:26.040Z,36.32
2019-05-26T16:12:58.615Z,35.37
2019-05-26T16:15:31.294Z,36.95
2019-05-26T16:18:03.518Z,36.76
2019-05-26T16:20:37.266Z,36.58
2019-05-26T16:23:09.479Z,37.96
2019-05-26T16:25:42.122Z,36.96
2019-05-26T16:28:14.794Z,37.42
2019-05-26T16:30:47.891Z,37.72
2019-05-26T16:33:20.572Z,37.76
2019-05-26T16:35:55.505Z,37.89
2019-05-26T16:38:27.566Z,37.91
2019-05-26T16:41:00.275Z,37.94
2019-05-26T16:43:32.917Z,38.94
2019-05-26T16:46:05.822Z,38.50
2019-05-26T16:48:38.510Z,38.38
2019-05-26T16:51:11.260Z,38.95
2019-05-26T16:53:43.936Z,38.90
2019-05-26T16:56:16.735Z,38.84
2019-05-26T16:58:49.409Z,38.70
2019-05-26T17:01:22.082Z,39.14
2019-05-26T17:03:54.858Z,38.47
2019-05-26T17:06:27.538Z,38.32
2019-05-26T17:09:00.221Z,38.85
2019-05-26T17:11:32.901Z,38.71
2019-05-26T17:14:05.578Z,37.39
2019-05-26T17:16:38.319Z,38.48
2019-05-26T17:19:10.946Z,39.92
2019-05-26T17:21:43.617Z,40.14
2019-05-26T17:24:21.731Z,38.97
2019-05-26T17:26:55.940Z,39.48
2019-05-26T17:29:28.166Z,40.35
2019-05-26T17:32:00.939Z,41.01
2019-05-26T17:34:33.571Z,41.45
2019-05-26T17:37:06.487Z,42.25
2019-05-26T17:39:39.127Z,42.43
2019-05-26T17:42:11.811Z,42.88
2019-05-26T17:44:44.031Z,43.39
2019-05-26T17:47:29.075Z,42.97
2019-05-26T17:49:51.073Z,43.98
2019-05-26T17:52:23.650Z,44.44
2019-05-26T17:54:56.228Z,45.02
2019-05-26T17:57:29.161Z,44.99
2019-05-26T18:00:01.388Z,45.11
2019-05-26T18:02:35.389Z,46.08
2019-05-26T18:05:08.272Z,45.92
2019-05-26T18:07:42.610Z,46.88
2019-05-26T18:10:17.246Z,46.52
2019-05-26T18:12:50.787Z,47.27
2019-05-26T18:15:24.628Z,47.38
2019-05-26T18:17:59.204Z,47.39
2019-05-26T18:20:32.442Z,47.35
2019-05-26T18:23:04.968Z,46.68
2019-05-26T18:25:37.591Z,47.11
2019-05-26T18:28:10.166Z,47.65
2019-05-26T18:30:44.111Z,48.05
2019-05-26T18:33:18.433Z,49.00
2019-05-26T18:35:51.449Z,49.72
2019-05-26T18:38:24.379Z,49.13
2019-05-26T18:40:57.058Z,50.45
2019-05-26T18:43:30.045Z,50.27
2019-05-26T18:46:02.734Z,50.51
2019-05-26T18:48:40.522Z,50.63
2019-05-26T18:51:21.787Z,52.03
2019-05-26T18:54:02.620Z,52.41
2019-05-26T18:56:53.510Z,52.83
2019-05-26T18:59:28.395Z,53.85
2019-05-26T19:02:04.784Z,53.41
2019-05-26T19:04:41.850Z,53.77
2019-05-26T19:07:19.504Z,53.83
2019-05-26T19:09:55.013Z,54.12
2019-05-26T19:12:29.020Z,54.47
2019-05-26T19:15:04.431Z,54.54
2019-05-26T19:17:38.269Z,54.85
2019-05-26T19:20:16.716Z,55.33
2019-05-26T19:22:48.843Z,55.99
2019-05-26T19:25:23.669Z,55.76
2019-05-26T19:27:59.092Z,56.34
2019-05-26T19:30:32.724Z,56.09
2019-05-26T19:33:05.745Z,55.55
2019-05-26T19:35:42.149Z,56.90
2019-05-26T19:38:30.586Z,56.54
2019-05-26T19:41:08.733Z,56.24
2019-05-26T19:43:48.575Z,56.58
2019-05-26T19:46:25.727Z,55.74
2019-05-26T19:48:59.273Z,56.16
2019-05-26T19:51:31.935Z,56.13
2019-05-26T19:54:04.619Z,56.79
2019-05-26T19:56:37.293Z,56.74
2019-05-26T19:59:09.747Z,57.48
2019-05-26T20:01:42.451Z,56.81
2019-05-26T20:04:16.055Z,57.33
2019-05-26T20:06:48.660Z,57.02
2019-05-26T20:09:21.300Z,56.16
2019-05-26T20:11:53.709Z,55.54
2019-05-26T20:14:26.441Z,54.82
2019-05-26T20:16:59.122Z,54.73
2019-05-26T20:19:31.805Z,54.63
2019-05-26T20:22:04.477Z,54.65
2019-05-26T20:24:37.056Z,54.52
2019-05-26T20:27:09.737Z,54.96
2019-05-26T20:29:42.314Z,55.53
2019-05-26T20:32:14.997Z,54.61
2019-05-26T20:34:47.671Z,54.94
2019-05-26T20:37:20.355Z,55.32
2019-05-26T20:39:52.936Z,56.32
2019-05-26T20:42:25.709Z,54.84
2019-05-26T20:44:58.722Z,55.53
2019-05-26T20:47:31.910Z,54.47
2019-05-26T20:50:08.260Z,53.98
2019-05-26T20:52:40.944Z,54.11
2019-05-26T20:55:13.719Z,54.56
2019-05-26T20:57:46.598Z,54.67
2019-05-26T21:00:19.666Z,54.43
2019-05-26T21:02:52.369Z,54.22
2019-05-26T21:05:24.941Z,54.47
2019-05-26T21:07:58.013Z,54.42
2019-05-26T21:10:30.606Z,55.03
2019-05-26T21:13:02.848Z,55.32
2019-05-26T21:15:35.863Z,55.38
2019-05-26T21:18:08.553Z,55.66
2019-05-26T21:20:43.067Z,55.83
2019-05-26T21:23:15.756Z,56.22
2019-05-26T21:25:48.320Z,56.31
2019-05-26T21:28:21.063Z,56.18
2019-05-26T21:30:53.675Z,56.54
2019-05-26T21:33:26.358Z,57.10
2019-05-26T21:35:58.942Z,57.66
2019-05-26T21:38:31.611Z,57.70
2019-05-26T21:41:04.189Z,57.46
2019-05-26T21:43:36.872Z,58.04
2019-05-26T21:46:09.452Z,58.43
2019-05-26T21:48:42.126Z,57.95
2019-05-26T21:51:14.912Z,58.35
2019-05-26T21:53:47.586Z,58.84
2019-05-26T21:56:19.797Z,58.47
2019-05-26T21:58:52.130Z,58.39
2019-05-26T22:01:24.913Z,58.80
2019-05-26T22:03:58.098Z,59.01
2019-05-26T22:06:30.648Z,59.37
2019-05-26T22:09:03.479Z,59.64
2019-05-26T22:11:35.972Z,59.51
2019-05-26T22:14:08.815Z,59.37
2019-05-26T22:16:41.696Z,59.24
2019-05-26T22:19:14.789Z,58.77
2019-05-26T22:21:47.671Z,58.51
2019-05-26T22:24:20.351Z,58.38
2019-05-26T22:26:52.561Z,58.53
2019-05-26T22:29:25.220Z,58.61
2019-05-26T22:31:57.775Z,59.00
2019-05-26T22:34:30.455Z,58.90
2019-05-26T22:37:03.032Z,59.30
2019-05-26T22:39:35.718Z,59.30
2019-05-26T22:42:08.793Z,59.40
2019-05-26T22:44:41.482Z,59.82
2019-05-26T22:47:14.058Z,60.04
2019-05-26T22:49:46.729Z,60.13
2019-05-26T22:52:19.623Z,60.93
2019-05-26T22:54:52.600Z,60.50
2019-05-26T22:57:25.229Z,60.53
2019-05-26T22:59:57.577Z,60.88
2019-05-26T23:02:30.244Z,61.21
2019-05-26T23:05:02.598Z,61.11
2019-05-26T23:07:35.077Z,61.46
2019-05-26T23:10:09.130Z,61.86
2019-05-26T23:12:41.260Z,61.95
2019-05-26T23:15:15.368Z,62.30
2019-05-26T23:17:49.286Z,62.68
2019-05-26T23:20:23.900Z,63.06
2019-05-26T23:22:57.192Z,63.21
2019-05-26T23:25:30.593Z,62.95
2019-05-26T23:28:04.603Z,63.02
2019-05-26T23:30:38.632Z,63.58
2019-05-26T23:33:13.541Z,63.86
2019-05-26T23:35:47.549Z,64.04
2019-05-26T23:38:21.097Z,64.30
2019-05-26T23:40:55.065Z,64.85
2019-05-26T23:43:28.973Z,64.80
2019-05-26T23:46:01.852Z,64.34
2019-05-26T23:48:34.435Z,64.75
2019-05-26T23:51:07.007Z,64.98
2019-05-26T23:53:39.489Z,64.66
2019-05-26T23:56:12.166Z,65.22
2019-05-26T23:58:46.224Z,65.28
